createdAt,value
2022-11-09T00:00:50.876Z,984.29
2022-11-09T00:01:50.929Z,984.22
2022-11-09T00:02:50.857Z,984.17
2022-11-09T00:03:50.891Z,984.29
2022-11-09T00:04:50.814Z,984.14
2022-11-09T00:05:50.859Z,984.18
2022-11-09T00:06:50.875Z,984.16
2022-11-09T00:07:50.893Z,984.13
2022-11-09T00:08:50.781Z,984.11
2022-11-09T00:09:50.832Z,984.14
2022-11-09T00:10:50.804Z,984.16
2022-11-09T00:11:50.762Z,984.15
2022-11-09T00:12:50.756Z,984.13
2022-11-09T00:13:50.732Z,984.15
2022-11-09T00:14:50.759Z,984.21
2022-11-09T00:15:50.775Z,984.18
2022-11-09T00:16:50.705Z,984.08
2022-11-09T00:17:50.689Z,984.13
2022-11-09T00:18:50.756Z,984.14
2022-11-09T00:19:50.646Z,984.13
2022-11-09T00:20:50.688Z,984.14
2022-11-09T00:21:50.646Z,984.17
2022-11-09T00:22:50.616Z,984.17
2022-11-09T00:23:50.603Z,984.14
2022-11-09T00:24:50.633Z,984.12
2022-11-09T00:25:50.596Z,984.11
2022-11-09T00:26:50.599Z,984.19
2022-11-09T00:27:50.567Z,984.21
2022-11-09T00:28:50.561Z,984.21
2022-11-09T00:29:50.723Z,984.18
2022-11-09T00:30:50.537Z,984.18
2022-11-09T00:31:50.577Z,984.26
2022-11-09T00:32:50.590Z,984.20
2022-11-09T00:33:50.495Z,984.25
2022-11-09T00:34:50.488Z,984.21
2022-11-09T00:35:50.519Z,984.25
2022-11-09T00:36:50.564Z,984.26
2022-11-09T00:37:50.656Z,984.24
2022-11-09T00:38:50.448Z,984.26
2022-11-09T00:39:50.450Z,984.21
2022-11-09T00:40:50.456Z,984.30
2022-11-09T00:41:50.410Z,984.29
2022-11-09T00:42:50.469Z,984.34
2022-11-09T00:43:50.446Z,984.31
2022-11-09T00:44:50.382Z,984.29
2022-11-09T00:45:50.404Z,984.35
2022-11-09T00:46:50.374Z,984.35
2022-11-09T00:47:50.601Z,984.31
2022-11-09T00:48:50.337Z,984.32
2022-11-09T00:49:50.339Z,984.38
2022-11-09T00:50:50.377Z,984.36
2022-11-09T00:51:50.358Z,984.43
2022-11-09T00:52:50.418Z,984.42
2022-11-09T00:53:50.320Z,984.45
2022-11-09T00:54:50.295Z,984.50
2022-11-09T00:55:50.300Z,984.58
2022-11-09T00:56:50.317Z,984.57
2022-11-09T00:57:50.282Z,984.66
2022-11-09T00:58:50.225Z,984.67
2022-11-09T00:59:50.243Z,984.84
2022-11-09T01:00:50.313Z,984.90
2022-11-09T01:01:50.335Z,984.92
2022-11-09T01:02:50.177Z,984.94
2022-11-09T01:03:50.192Z,984.98
2022-11-09T01:04:50.184Z,985.05
2022-11-09T01:05:50.166Z,984.99
2022-11-09T01:06:50.227Z,984.95
2022-11-09T01:07:50.177Z,985.02
2022-11-09T01:08:50.127Z,984.99
2022-11-09T01:09:50.115Z,985.04
2022-11-09T01:10:50.090Z,984.98
2022-11-09T01:11:50.102Z,985.10
2022-11-09T01:12:50.118Z,984.98
2022-11-09T01:13:50.056Z,985.02
2022-11-09T01:14:50.058Z,984.97
2022-11-09T01:15:50.078Z,984.98
2022-11-09T01:16:50.063Z,984.91
2022-11-09T01:17:50.057Z,984.91
2022-11-09T01:18:50.048Z,984.89
2022-11-09T01:19:50.044Z,984.95
2022-11-09T01:20:50.034Z,984.92
2022-11-09T01:21:49.968Z,984.90
2022-11-09T01:22:49.969Z,984.89
2022-11-09T01:23:49.969Z,984.88
2022-11-09T01:24:49.948Z,984.90
2022-11-09T01:25:49.963Z,984.91
2022-11-09T01:26:49.964Z,984.94
2022-11-09T01:27:49.932Z,984.89
2022-11-09T01:28:49.930Z,984.93
2022-11-09T01:29:49.976Z,984.89
2022-11-09T01:30:49.902Z,984.88
2022-11-09T01:31:49.860Z,984.82
2022-11-09T01:32:49.864Z,984.85
2022-11-09T01:33:49.837Z,984.83
2022-11-09T01:34:49.825Z,984.84
2022-11-09T01:35:49.829Z,984.77
2022-11-09T01:36:49.830Z,984.78
2022-11-09T01:37:50.078Z,984.81
2022-11-09T01:38:49.837Z,984.80
2022-11-09T01:39:49.781Z,984.78
2022-11-09T01:40:49.816Z,984.81
2022-11-09T01:41:49.769Z,984.84
2022-11-09T01:42:49.750Z,984.84
2022-11-09T01:43:49.756Z,984.85
2022-11-09T01:44:49.750Z,984.85
2022-11-09T01:45:49.834Z,984.88
2022-11-09T01:46:49.699Z,984.87
2022-11-09T01:47:49.691Z,984.89
2022-11-09T01:48:49.701Z,984.93
2022-11-09T01:49:49.708Z,984.97
2022-11-09T01:50:49.656Z,984.94
2022-11-09T01:51:49.667Z,984.95
2022-11-09T01:52:49.663Z,985.02
2022-11-09T01:53:49.633Z,984.99
2022-11-09T01:54:49.663Z,984.92
2022-11-09T01:55:49.613Z,984.96
2022-11-09T01:56:49.610Z,985.05
2022-11-09T01:57:49.609Z,985.01
2022-11-09T01:58:49.725Z,985.04
2022-11-09T01:59:49.568Z,985.07
2022-11-09T02:00:49.601Z,985.07
2022-11-09T02:01:49.578Z,985.13
2022-11-09T02:02:49.573Z,985.13
2022-11-09T02:03:49.573Z,985.18
2022-11-09T02:04:49.520Z,985.18
2022-11-09T02:05:49.492Z,985.16
2022-11-09T02:06:49.537Z,985.20
2022-11-09T02:07:49.556Z,985.17
2022-11-09T02:08:49.483Z,985.22
2022-11-09T02:09:49.475Z,985.20
2022-11-09T02:10:49.589Z,985.24
2022-11-09T02:11:49.441Z,985.16
2022-11-09T02:12:49.466Z,985.17
2022-11-09T02:13:49.442Z,985.17
2022-11-09T02:14:49.398Z,985.15
2022-11-09T02:15:49.480Z,985.15
2022-11-09T02:16:49.440Z,985.14
2022-11-09T02:17:49.380Z,985.17
2022-11-09T02:18:49.395Z,985.17
2022-11-09T02:19:49.343Z,985.15
2022-11-09T02:20:49.361Z,985.12
2022-11-09T02:21:49.321Z,985.13
2022-11-09T02:22:49.382Z,985.18
2022-11-09T02:23:49.291Z,985.12
2022-11-09T02:24:51.804Z,985.13
2022-11-09T02:25:50.316Z,985.15
2022-11-09T02:26:49.262Z,985.18
2022-11-09T02:27:49.272Z,985.11
2022-11-09T02:28:49.264Z,985.12
2022-11-09T02:29:49.272Z,985.16
2022-11-09T02:30:49.222Z,985.14
2022-11-09T02:31:49.225Z,985.12
2022-11-09T02:32:49.204Z,985.14
2022-11-09T02:33:49.203Z,985.16
2022-11-09T02:34:49.176Z,985.14
2022-11-09T02:35:49.262Z,985.09
2022-11-09T02:36:49.267Z,985.09
2022-11-09T02:37:49.151Z,985.09
2022-11-09T02:38:49.130Z,985.06
2022-11-09T02:39:49.122Z,985.04
2022-11-09T02:40:49.135Z,985.09
2022-11-09T02:41:49.130Z,985.08
2022-11-09T02:42:49.083Z,985.04
2022-11-09T02:43:49.184Z,985.10
2022-11-09T02:44:49.071Z,985.12
2022-11-09T02:45:49.079Z,985.09
2022-11-09T02:46:49.072Z,985.06
2022-11-09T02:47:49.058Z,985.01
2022-11-09T02:48:49.044Z,985.01
2022-11-09T02:49:49.008Z,985.01
2022-11-09T02:50:49.051Z,984.99
2022-11-09T02:51:49.014Z,984.96
2022-11-09T02:52:49.030Z,984.97
2022-11-09T02:53:48.971Z,985.01
2022-11-09T02:54:48.978Z,985.01
2022-11-09T02:55:48.968Z,985.05
2022-11-09T02:56:49.003Z,985.10
2022-11-09T02:57:48.927Z,985.15
2022-11-09T02:58:48.916Z,985.09
2022-11-09T02:59:48.912Z,985.09
2022-11-09T03:00:48.946Z,985.14
2022-11-09T03:01:48.898Z,985.17
2022-11-09T03:02:48.912Z,985.16
2022-11-09T03:03:48.866Z,985.22
2022-11-09T03:04:48.865Z,985.22
2022-11-09T03:05:48.861Z,985.21
2022-11-09T03:06:48.891Z,985.17
2022-11-09T03:07:48.859Z,985.29
2022-11-09T03:08:48.804Z,985.27
2022-11-09T03:09:48.843Z,985.23
2022-11-09T03:10:48.809Z,985.23
2022-11-09T03:11:48.818Z,985.33
2022-11-09T03:12:48.797Z,985.35
2022-11-09T03:13:48.781Z,985.32
2022-11-09T03:14:48.751Z,985.35
2022-11-09T03:15:48.757Z,985.39
2022-11-09T03:16:50.825Z,985.44
2022-11-09T03:17:48.752Z,985.43
2022-11-09T03:18:48.735Z,985.41
2022-11-09T03:19:48.683Z,985.41
2022-11-09T03:20:48.684Z,985.44
2022-11-09T03:21:48.664Z,985.48
2022-11-09T03:22:48.711Z,985.49
2022-11-09T03:23:48.642Z,985.46
2022-11-09T03:24:48.638Z,985.52
2022-11-09T03:25:48.650Z,985.46
2022-11-09T03:26:48.635Z,985.49
2022-11-09T03:27:48.617Z,985.54
2022-11-09T03:28:48.639Z,985.47
2022-11-09T03:29:48.614Z,985.51
2022-11-09T03:30:48.585Z,985.49
2022-11-09T03:31:48.586Z,985.45
2022-11-09T03:32:50.786Z,985.51
2022-11-09T03:33:48.550Z,985.50
2022-11-09T03:34:48.545Z,985.54
2022-11-09T03:35:48.526Z,985.45
2022-11-09T03:36:48.545Z,985.51
2022-11-09T03:37:48.605Z,985.49
2022-11-09T03:38:48.482Z,985.49
2022-11-09T03:39:48.469Z,985.52
2022-11-09T03:40:48.545Z,985.54
2022-11-09T03:41:48.460Z,985.56
2022-11-09T03:42:48.477Z,985.57
2022-11-09T03:43:48.445Z,985.51
2022-11-09T03:44:48.469Z,985.53
2022-11-09T03:45:48.484Z,985.52
2022-11-09T03:46:48.461Z,985.55
2022-11-09T03:47:48.406Z,985.47
2022-11-09T03:48:48.386Z,985.53
2022-11-09T03:49:48.400Z,985.45
2022-11-09T03:50:48.372Z,985.46
2022-11-09T03:51:48.335Z,985.45
2022-11-09T03:52:48.355Z,985.33
2022-11-09T03:53:48.362Z,985.30
2022-11-09T03:54:48.300Z,985.28
2022-11-09T03:55:48.304Z,985.29
2022-11-09T03:56:48.279Z,985.32
2022-11-09T03:57:48.318Z,985.29
2022-11-09T03:58:48.290Z,985.27
2022-11-09T03:59:48.284Z,985.25
2022-11-09T04:00:48.285Z,985.30
2022-11-09T04:01:48.314Z,985.23
2022-11-09T04:02:48.222Z,985.29
2022-11-09T04:03:48.228Z,985.31
2022-11-09T04:04:48.222Z,985.31
2022-11-09T04:05:48.194Z,985.32
2022-11-09T04:06:48.323Z,985.34
2022-11-09T04:07:48.160Z,985.29
2022-11-09T04:08:51.404Z,985.32
2022-11-09T04:09:48.141Z,985.28
2022-11-09T04:10:48.143Z,985.34
2022-11-09T04:11:48.358Z,985.36
2022-11-09T04:12:48.108Z,985.31
2022-11-09T04:13:48.099Z,985.32
2022-11-09T04:14:48.109Z,985.26
2022-11-09T04:15:48.117Z,985.33
2022-11-09T04:16:48.140Z,985.32
2022-11-09T04:17:48.047Z,985.33
2022-11-09T04:18:48.108Z,985.33
2022-11-09T04:19:48.029Z,985.33
2022-11-09T04:20:48.159Z,985.30
2022-11-09T04:21:48.075Z,985.27
2022-11-09T04:22:48.030Z,985.27
2022-11-09T04:23:47.982Z,985.26
2022-11-09T04:24:47.974Z,985.22
2022-11-09T04:25:48.144Z,985.19
2022-11-09T04:26:47.951Z,985.13
2022-11-09T04:27:48.054Z,985.19
2022-11-09T04:28:47.946Z,985.15
2022-11-09T04:29:47.914Z,985.22
2022-11-09T04:30:47.920Z,985.15
2022-11-09T04:31:47.892Z,985.06
2022-11-09T04:32:47.888Z,985.09
2022-11-09T04:33:47.926Z,985.06
2022-11-09T04:34:47.865Z,985.00
2022-11-09T04:35:47.883Z,984.99
2022-11-09T04:36:47.840Z,984.97
2022-11-09T04:37:47.864Z,985.00
2022-11-09T04:38:47.819Z,984.96
2022-11-09T04:39:47.821Z,984.99
2022-11-09T04:40:47.838Z,984.94
2022-11-09T04:41:47.816Z,984.91
2022-11-09T04:42:47.803Z,984.90
2022-11-09T04:43:47.798Z,984.85
2022-11-09T04:44:47.756Z,984.87
2022-11-09T04:45:47.847Z,984.90
2022-11-09T04:46:47.763Z,984.90
2022-11-09T04:47:47.772Z,984.96
2022-11-09T04:48:47.803Z,984.91
2022-11-09T04:49:47.738Z,984.94
2022-11-09T04:50:47.686Z,984.94
2022-11-09T04:51:47.689Z,984.94
2022-11-09T04:52:47.769Z,984.91
2022-11-09T04:53:47.719Z,984.92
2022-11-09T04:54:47.663Z,984.90
2022-11-09T04:55:47.712Z,984.92
2022-11-09T04:56:47.632Z,984.91
2022-11-09T04:57:47.632Z,984.92
2022-11-09T04:58:47.653Z,984.94
2022-11-09T04:59:47.648Z,984.99
2022-11-09T05:00:47.649Z,984.99
2022-11-09T05:01:47.609Z,984.98
2022-11-09T05:02:47.576Z,984.97
2022-11-09T05:03:47.653Z,985.03
2022-11-09T05:04:47.572Z,985.04
2022-11-09T05:05:48.662Z,985.01
2022-11-09T05:06:47.603Z,985.13
2022-11-09T05:07:47.514Z,985.06
2022-11-09T05:08:47.523Z,985.04
2022-11-09T05:09:47.508Z,985.01
2022-11-09T05:10:47.562Z,984.93
2022-11-09T05:11:47.473Z,984.95
2022-11-09T05:12:47.466Z,984.98
2022-11-09T05:13:47.504Z,984.94
2022-11-09T05:14:47.450Z,984.97
2022-11-09T05:15:47.486Z,984.86
2022-11-09T05:16:47.482Z,984.84
2022-11-09T05:17:47.418Z,984.86
2022-11-09T05:18:47.405Z,984.81
2022-11-09T05:19:48.263Z,984.88
2022-11-09T05:20:47.372Z,984.88
2022-11-09T05:21:47.444Z,984.92
2022-11-09T05:22:47.386Z,984.96
2022-11-09T05:23:47.341Z,984.99
2022-11-09T05:24:47.353Z,985.01
2022-11-09T05:25:47.361Z,985.05
2022-11-09T05:26:47.295Z,985.08
2022-11-09T05:27:47.282Z,985.05
2022-11-09T05:28:47.319Z,985.00
2022-11-09T05:29:47.310Z,985.01
2022-11-09T05:30:47.258Z,985.00
2022-11-09T05:31:52.006Z,985.06
2022-11-09T05:32:47.234Z,985.10
2022-11-09T05:33:47.244Z,985.11
2022-11-09T05:34:47.234Z,985.03
2022-11-09T05:35:47.194Z,985.07
2022-11-09T05:36:47.184Z,985.06
2022-11-09T05:37:47.173Z,985.07
2022-11-09T05:38:47.194Z,985.09
2022-11-09T05:39:47.191Z,985.18
2022-11-09T05:40:47.171Z,985.15
2022-11-09T05:41:47.158Z,985.13
2022-11-09T05:42:47.142Z,985.22
2022-11-09T05:43:47.111Z,985.20
2022-11-09T05:44:47.152Z,985.20
2022-11-09T05:45:47.157Z,985.22
2022-11-09T05:46:47.116Z,985.24
2022-11-09T05:47:47.086Z,985.25
2022-11-09T05:48:47.125Z,985.24
2022-11-09T05:49:47.052Z,985.24
2022-11-09T05:50:47.066Z,985.25
2022-11-09T05:51:47.075Z,985.29
2022-11-09T05:52:47.013Z,985.27
2022-11-09T05:53:47.318Z,985.32
2022-11-09T05:54:47.055Z,985.36
2022-11-09T05:55:47.049Z,985.37
2022-11-09T05:56:46.975Z,985.37
2022-11-09T05:57:46.973Z,985.42
2022-11-09T05:58:46.992Z,985.41
2022-11-09T05:59:46.967Z,985.36
2022-11-09T06:00:46.998Z,985.31
2022-11-09T06:01:46.976Z,985.34
2022-11-09T06:02:46.918Z,985.36
2022-11-09T06:03:46.936Z,985.41
2022-11-09T06:04:46.880Z,985.40
2022-11-09T06:05:46.913Z,985.40
2022-11-09T06:06:46.909Z,985.34
2022-11-09T06:07:46.887Z,985.34
2022-11-09T06:08:46.890Z,985.37
2022-11-09T06:09:46.875Z,985.40
2022-11-09T06:10:46.848Z,985.43
2022-11-09T06:11:46.808Z,985.55
2022-11-09T06:12:46.880Z,985.49
2022-11-09T06:13:46.820Z,985.59
2022-11-09T06:14:46.784Z,985.65
2022-11-09T06:15:46.851Z,985.64
2022-11-09T06:16:46.767Z,985.65
2022-11-09T06:17:46.780Z,985.67
2022-11-09T06:18:46.756Z,985.59
2022-11-09T06:19:46.731Z,985.71
2022-11-09T06:20:46.778Z,985.67
2022-11-09T06:21:46.735Z,985.68
2022-11-09T06:22:46.696Z,985.69
2022-11-09T06:23:46.723Z,985.68
2022-11-09T06:24:46.676Z,985.67
2022-11-09T06:25:46.690Z,985.69
2022-11-09T06:26:46.648Z,985.64
2022-11-09T06:27:46.681Z,985.66
2022-11-09T06:28:46.655Z,985.67
2022-11-09T06:29:46.628Z,985.64
2022-11-09T06:30:46.660Z,985.71
2022-11-09T06:31:46.634Z,985.66
2022-11-09T06:32:46.579Z,985.67
2022-11-09T06:33:46.573Z,985.69
2022-11-09T06:34:46.562Z,985.70
2022-11-09T06:35:46.610Z,985.64
2022-11-09T06:36:46.571Z,985.62
2022-11-09T06:37:46.563Z,985.64
2022-11-09T06:38:46.598Z,985.64
2022-11-09T06:39:46.621Z,985.70
2022-11-09T06:40:46.539Z,985.70
2022-11-09T06:41:47.785Z,985.67
2022-11-09T06:42:46.558Z,985.64
2022-11-09T06:43:46.456Z,985.64
2022-11-09T06:44:46.485Z,985.70
2022-11-09T06:45:46.524Z,985.68
2022-11-09T06:46:46.413Z,985.73
2022-11-09T06:47:46.431Z,985.76
2022-11-09T06:48:49.451Z,985.79
2022-11-09T06:49:47.428Z,985.82
2022-11-09T06:50:46.414Z,985.89
2022-11-09T06:51:46.367Z,985.84
2022-11-09T06:52:46.360Z,985.90
2022-11-09T06:53:46.339Z,985.97
2022-11-09T06:54:46.335Z,985.95
2022-11-09T06:55:50.572Z,986.00
2022-11-09T06:56:46.412Z,986.10
2022-11-09T06:57:46.334Z,986.11
2022-11-09T06:58:46.319Z,986.20
2022-11-09T06:59:46.318Z,986.28
2022-11-09T07:00:46.338Z,986.35
2022-11-09T07:01:46.494Z,986.29
2022-11-09T07:02:46.266Z,986.30
2022-11-09T07:03:46.280Z,986.36
2022-11-09T07:04:46.263Z,986.43
2022-11-09T07:05:46.224Z,986.38
2022-11-09T07:06:46.322Z,986.28
2022-11-09T07:07:46.194Z,986.29
2022-11-09T07:08:46.273Z,986.29
2022-11-09T07:09:46.195Z,986.36
2022-11-09T07:10:46.195Z,986.34
2022-11-09T07:11:46.192Z,986.36
2022-11-09T07:12:46.150Z,986.28
2022-11-09T07:13:46.141Z,986.25
2022-11-09T07:14:46.195Z,986.31
2022-11-09T07:15:46.097Z,986.34
2022-11-09T07:16:46.136Z,986.32
2022-11-09T07:17:46.100Z,986.32
2022-11-09T07:18:46.092Z,986.36
2022-11-09T07:19:46.077Z,986.35
2022-11-09T07:20:46.041Z,986.41
2022-11-09T07:21:46.045Z,986.44
2022-11-09T07:22:46.061Z,986.37
2022-11-09T07:23:46.026Z,986.45
2022-11-09T07:24:46.104Z,986.47
2022-11-09T07:25:45.988Z,986.47
2022-11-09T07:26:46.007Z,986.44
2022-11-09T07:27:46.028Z,986.44
2022-11-09T07:28:45.975Z,986.51
2022-11-09T07:29:45.974Z,986.49
2022-11-09T07:30:45.960Z,986.53
2022-11-09T07:31:46.000Z,986.53
2022-11-09T07:33:15.668Z,986.51
2022-11-09T07:33:46.930Z,986.47
2022-11-09T07:34:45.885Z,986.51
2022-11-09T07:35:45.905Z,986.46
2022-11-09T07:36:45.892Z,986.49
2022-11-09T07:37:45.900Z,986.53
2022-11-09T07:38:45.859Z,986.48
2022-11-09T07:39:45.895Z,986.48
2022-11-09T07:40:45.864Z,986.61
2022-11-09T07:41:45.812Z,986.60
2022-11-09T07:42:45.833Z,986.55
2022-11-09T07:43:45.937Z,986.58
2022-11-09T07:44:45.807Z,986.57
2022-11-09T07:45:45.844Z,986.50
2022-11-09T07:46:45.787Z,986.53
2022-11-09T07:47:45.754Z,986.52
2022-11-09T07:48:45.758Z,986.51
2022-11-09T07:49:45.773Z,986.53
2022-11-09T07:50:45.725Z,986.51
2022-11-09T07:51:45.790Z,986.45
2022-11-09T07:52:45.689Z,986.44
2022-11-09T07:53:45.676Z,986.41
2022-11-09T07:54:50.887Z,986.43
2022-11-09T07:55:46.742Z,986.44
2022-11-09T07:56:45.706Z,986.36
2022-11-09T07:57:45.635Z,986.39
2022-11-09T07:58:45.692Z,986.42
2022-11-09T07:59:45.682Z,986.41
2022-11-09T08:00:45.661Z,986.41
2022-11-09T08:01:45.640Z,986.34
2022-11-09T08:02:45.609Z,986.35
2022-11-09T08:03:45.573Z,986.31
2022-11-09T08:04:45.630Z,986.31
2022-11-09T08:05:45.581Z,986.35
2022-11-09T08:06:45.620Z,986.40
2022-11-09T08:07:45.555Z,986.49
2022-11-09T08:08:45.518Z,986.45
2022-11-09T08:09:45.652Z,986.48
2022-11-09T08:10:45.525Z,986.44
2022-11-09T08:11:45.500Z,986.49
2022-11-09T08:12:45.485Z,986.47
2022-11-09T08:13:45.460Z,986.50
2022-11-09T08:14:45.558Z,986.49
2022-11-09T08:15:45.463Z,986.46
2022-11-09T08:16:45.430Z,986.48
2022-11-09T08:17:45.555Z,986.41
2022-11-09T08:18:45.409Z,986.48
2022-11-09T08:19:45.455Z,986.50
2022-11-09T08:20:45.411Z,986.54
2022-11-09T08:21:45.396Z,986.62
2022-11-09T08:22:45.429Z,986.56
2022-11-09T08:23:45.387Z,986.61
2022-11-09T08:24:45.353Z,986.55
2022-11-09T08:25:45.396Z,986.56
2022-11-09T08:26:45.347Z,986.55
2022-11-09T08:27:45.348Z,986.48
2022-11-09T08:28:45.322Z,986.47
2022-11-09T08:29:45.281Z,986.50
2022-11-09T08:30:45.306Z,986.53
2022-11-09T08:31:45.289Z,986.49
2022-11-09T08:32:45.249Z,986.52
2022-11-09T08:33:45.261Z,986.51
2022-11-09T08:34:45.228Z,986.48
2022-11-09T08:35:48.033Z,986.52
2022-11-09T08:36:46.243Z,986.48
2022-11-09T08:37:45.217Z,986.49
2022-11-09T08:38:45.195Z,986.48
2022-11-09T08:39:45.203Z,986.43
2022-11-09T08:40:45.169Z,986.37
2022-11-09T08:41:45.263Z,986.38
2022-11-09T08:42:45.212Z,986.36
2022-11-09T08:43:45.168Z,986.33
2022-11-09T08:44:45.128Z,986.34
2022-11-09T08:45:45.142Z,986.32
2022-11-09T08:46:45.147Z,986.35
2022-11-09T08:47:45.134Z,986.40
2022-11-09T08:48:45.101Z,986.34
2022-11-09T08:49:45.171Z,986.40
2022-11-09T08:50:45.168Z,986.33
2022-11-09T08:51:45.059Z,986.32
2022-11-09T08:52:45.096Z,986.35
2022-11-09T08:53:45.040Z,986.38
2022-11-09T08:54:45.203Z,986.34
2022-11-09T08:55:49.361Z,986.36
2022-11-09T08:56:45.118Z,986.40
2022-11-09T08:57:44.999Z,986.41
2022-11-09T08:58:44.971Z,986.38
2022-11-09T08:59:44.983Z,986.38
2022-11-09T09:00:44.997Z,986.43
2022-11-09T09:01:44.991Z,986.50
2022-11-09T09:02:44.943Z,986.44
2022-11-09T09:03:44.917Z,986.42
2022-11-09T09:04:44.939Z,986.48
2022-11-09T09:05:44.919Z,986.48
2022-11-09T09:06:45.058Z,986.36
2022-11-09T09:07:44.880Z,986.42
2022-11-09T09:08:44.901Z,986.43
2022-11-09T09:09:44.880Z,986.39
2022-11-09T09:10:44.910Z,986.42
2022-11-09T09:11:44.857Z,986.39
2022-11-09T09:12:44.826Z,986.44
2022-11-09T09:13:44.803Z,986.38
2022-11-09T09:14:44.887Z,986.40
2022-11-09T09:15:44.799Z,986.42
2022-11-09T09:16:44.792Z,986.42
2022-11-09T09:17:44.785Z,986.43
2022-11-09T09:18:44.781Z,986.44
2022-11-09T09:19:49.834Z,986.42
2022-11-09T09:20:45.998Z,986.39
2022-11-09T09:21:44.741Z,986.37
2022-11-09T09:22:44.712Z,986.43
2022-11-09T09:23:44.731Z,986.37
2022-11-09T09:24:44.676Z,986.33
2022-11-09T09:25:44.699Z,986.33
2022-11-09T09:26:44.751Z,986.33
2022-11-09T09:27:44.673Z,986.36
2022-11-09T09:28:51.381Z,986.40
2022-11-09T09:29:47.274Z,986.36
2022-11-09T09:30:44.652Z,986.36
2022-11-09T09:31:44.599Z,986.34
2022-11-09T09:32:44.600Z,986.37
2022-11-09T09:33:44.587Z,986.39
2022-11-09T09:34:44.615Z,986.39
2022-11-09T09:35:44.593Z,986.36
2022-11-09T09:36:47.944Z,986.35
2022-11-09T09:37:49.644Z,986.36
2022-11-09T09:38:44.520Z,986.40
2022-11-09T09:39:44.523Z,986.44
2022-11-09T09:40:44.545Z,986.37
2022-11-09T09:41:44.506Z,986.35
2022-11-09T09:42:44.475Z,986.38
2022-11-09T09:43:44.490Z,986.39
2022-11-09T09:44:44.517Z,986.42
2022-11-09T09:45:44.513Z,986.38
2022-11-09T09:46:50.259Z,986.44
2022-11-09T09:47:45.456Z,986.40
2022-11-09T09:48:44.496Z,986.43
2022-11-09T09:49:44.500Z,986.43
2022-11-09T09:50:44.391Z,986.41
2022-11-09T09:51:44.429Z,986.43
2022-11-09T09:52:54.130Z,986.52
2022-11-09T09:53:45.422Z,986.51
2022-11-09T09:54:45.356Z,986.50
2022-11-09T09:55:51.593Z,986.49
2022-11-09T09:56:44.343Z,986.51
2022-11-09T09:57:44.333Z,986.56
2022-11-09T09:58:44.300Z,986.58
2022-11-09T09:59:44.298Z,986.58
2022-11-09T10:00:44.371Z,986.61
2022-11-09T10:01:44.368Z,986.61
2022-11-09T10:02:44.296Z,986.62
2022-11-09T10:03:44.840Z,986.60
2022-11-09T10:04:51.228Z,986.70
2022-11-09T10:05:45.305Z,986.65
2022-11-09T10:06:44.310Z,986.62
2022-11-09T10:07:44.218Z,986.65
2022-11-09T10:08:44.226Z,986.64
2022-11-09T10:09:44.217Z,986.66
2022-11-09T10:10:44.174Z,986.69
2022-11-09T10:11:44.179Z,986.65
2022-11-09T10:12:44.277Z,986.65
2022-11-09T10:13:44.335Z,986.68
2022-11-09T10:14:44.199Z,986.68
2022-11-09T10:15:44.142Z,986.70
2022-11-09T10:16:44.130Z,986.73
2022-11-09T10:17:44.110Z,986.72
2022-11-09T10:18:44.104Z,986.67
2022-11-09T10:19:44.139Z,986.68
2022-11-09T10:20:44.515Z,986.68
2022-11-09T10:21:44.671Z,986.64
2022-11-09T10:22:51.592Z,986.64
2022-11-09T10:23:45.042Z,986.67
2022-11-09T10:24:58.575Z,986.66
2022-11-09T10:26:03.163Z,986.63
2022-11-09T10:26:45.007Z,986.63
2022-11-09T10:27:44.065Z,986.60
2022-11-09T10:29:13.879Z,986.58
2022-11-09T10:29:45.052Z,986.61
2022-11-09T10:30:44.268Z,986.64
2022-11-09T10:31:49.721Z,986.59
2022-11-09T10:32:44.983Z,986.59
2022-11-09T10:33:43.949Z,986.53
2022-11-09T10:34:43.930Z,986.55
2022-11-09T10:35:43.899Z,986.50
2022-11-09T10:36:43.891Z,986.53
2022-11-09T10:37:43.880Z,986.50
2022-11-09T10:38:43.875Z,986.53
2022-11-09T10:39:45.845Z,986.49
2022-11-09T10:40:46.775Z,986.48
2022-11-09T10:41:43.833Z,986.49
2022-11-09T10:42:43.846Z,986.55
2022-11-09T10:43:43.844Z,986.49
2022-11-09T10:44:43.816Z,986.50
2022-11-09T10:45:43.866Z,986.36
2022-11-09T10:46:43.784Z,986.45
2022-11-09T10:47:43.786Z,986.45
2022-11-09T10:48:46.258Z,986.47
2022-11-09T10:49:46.283Z,986.45
2022-11-09T10:50:43.741Z,986.42
2022-11-09T10:51:43.725Z,986.47
2022-11-09T10:52:47.490Z,986.52
2022-11-09T10:53:43.698Z,986.52
2022-11-09T10:54:43.700Z,986.49
2022-11-09T10:55:43.738Z,986.52
2022-11-09T10:57:05.152Z,986.48
2022-11-09T10:57:48.296Z,986.56
2022-11-09T10:58:43.644Z,986.54
2022-11-09T10:59:43.681Z,986.58
2022-11-09T11:00:43.624Z,986.51
2022-11-09T11:01:43.796Z,986.52
2022-11-09T11:02:43.661Z,986.52
2022-11-09T11:03:43.621Z,986.53
2022-11-09T11:04:43.666Z,986.54
2022-11-09T11:05:43.589Z,986.50
2022-11-09T11:06:44.174Z,986.52
2022-11-09T11:07:45.140Z,986.55
2022-11-09T11:08:43.548Z,986.59
2022-11-09T11:09:43.559Z,986.55
2022-11-09T11:10:43.515Z,986.51
2022-11-09T11:11:43.533Z,986.50
2022-11-09T11:12:43.495Z,986.54
2022-11-09T11:13:43.492Z,986.52
2022-11-09T11:14:43.951Z,986.45
2022-11-09T11:15:44.519Z,986.51
2022-11-09T11:16:43.479Z,986.48
2022-11-09T11:17:43.453Z,986.49
2022-11-09T11:18:43.434Z,986.48
2022-11-09T11:19:44.411Z,986.44
2022-11-09T11:20:43.465Z,986.47
2022-11-09T11:21:43.414Z,986.51
2022-11-09T11:22:43.380Z,986.44
2022-11-09T11:23:43.474Z,986.51
2022-11-09T11:24:46.331Z,986.55
2022-11-09T11:25:43.344Z,986.46
2022-11-09T11:26:43.342Z,986.46
2022-11-09T11:27:43.328Z,986.46
2022-11-09T11:28:43.333Z,986.52
2022-11-09T11:29:43.354Z,986.45
2022-11-09T11:30:43.298Z,986.42
2022-11-09T11:31:43.299Z,986.45
2022-11-09T11:32:49.874Z,986.45
2022-11-09T11:33:44.780Z,986.46
2022-11-09T11:34:59.843Z,986.38
2022-11-09T11:35:44.248Z,986.39
2022-11-09T11:36:43.227Z,986.41
2022-11-09T11:37:43.275Z,986.40
2022-11-09T11:38:43.206Z,986.39
2022-11-09T11:39:43.366Z,986.37
2022-11-09T11:40:43.188Z,986.37
2022-11-09T11:41:43.554Z,986.37
2022-11-09T11:42:46.314Z,986.39
2022-11-09T11:43:43.148Z,986.38
2022-11-09T11:44:43.217Z,986.38
2022-11-09T11:45:43.159Z,986.33
2022-11-09T11:46:43.132Z,986.40
2022-11-09T11:47:43.101Z,986.31
2022-11-09T11:48:43.097Z,986.34
2022-11-09T11:49:43.119Z,986.34
2022-11-09T11:50:43.218Z,986.30
2022-11-09T11:51:45.824Z,986.34
2022-11-09T11:52:43.093Z,986.30
2022-11-09T11:53:43.671Z,986.31
2022-11-09T11:54:43.061Z,986.29
2022-11-09T11:55:43.011Z,986.34
2022-11-09T11:56:43.036Z,986.33
2022-11-09T11:57:43.030Z,986.27
2022-11-09T11:58:43.018Z,986.29
2022-11-09T11:59:43.425Z,986.29
2022-11-09T12:00:46.820Z,986.27
2022-11-09T12:01:42.943Z,986.26
2022-11-09T12:02:43.014Z,986.28
2022-11-09T12:03:46.941Z,986.25
2022-11-09T12:04:43.937Z,986.27
2022-11-09T12:05:42.920Z,986.24
2022-11-09T12:06:44.317Z,986.27
2022-11-09T12:07:42.903Z,986.25
2022-11-09T12:08:42.921Z,986.26
2022-11-09T12:09:49.482Z,986.26
2022-11-09T12:10:42.848Z,986.26
2022-11-09T12:11:42.847Z,986.29
2022-11-09T12:12:42.857Z,986.23
2022-11-09T12:13:48.435Z,986.27
2022-11-09T12:14:43.820Z,986.30
2022-11-09T12:15:42.967Z,986.27
2022-11-09T12:16:43.516Z,986.29
2022-11-09T12:17:42.780Z,986.32
2022-11-09T12:18:43.503Z,986.29
2022-11-09T12:19:42.787Z,986.27
2022-11-09T12:20:42.752Z,986.30
2022-11-09T12:21:42.757Z,986.30
2022-11-09T12:22:42.771Z,986.27
2022-11-09T12:23:42.772Z,986.24
2022-11-09T12:24:42.752Z,986.30
2022-11-09T12:25:42.751Z,986.24
2022-11-09T12:26:43.555Z,986.24
2022-11-09T12:27:42.792Z,986.29
2022-11-09T12:28:42.703Z,986.36